Terminal Aerodrome Forecast
Issued by NWS Pendleton, OR

Home | Current Version | Previous Version | Text Only | Print | Product List | Glossary On
Versions: 1 2 3 4 5 6 7 8 9 10 11 12 13 14 15 16
000
FTUS46 KPDT 300523
TAFPDT
TAF
KPDT 300523Z 3006/0106 25011KT P6SM VCSH OVC070
     FM301200 21006KT P6SM BKN050 OVC080
     FM301900 32008KT P6SM SCT070
     FM302200 02009KT P6SM SCT080
     FM010300 07006KT P6SM SCT080=

USA.gov is the U.S. government's official web portal to all federal, state and local government web resources and services.